createdAt,value
2018-04-28T00:00:57.784Z,97312.64
2018-04-28T00:02:03.216Z,97310.88
2018-04-28T00:03:06.610Z,97313.33
2018-04-28T00:04:09.562Z,97311.88
2018-04-28T00:05:12.372Z,97308.06
2018-04-28T00:06:15.054Z,97307.41
2018-04-28T00:07:17.721Z,97312.20
2018-04-28T00:08:20.896Z,97312.68
2018-04-28T00:09:23.665Z,97310.01
2018-04-28T00:10:27.466Z,97305.58
2018-04-28T00:11:31.229Z,97305.52
2018-04-28T00:12:33.978Z,97311.69
2018-04-28T00:13:36.770Z,97310.41
2018-04-28T00:14:39.873Z,97311.00
2018-04-28T00:15:43.675Z,97306.81
2018-04-28T00:16:47.933Z,97310.08
2018-04-28T00:17:52.481Z,97310.08
2018-04-28T00:18:55.328Z,97312.52
2018-04-28T00:19:58.098Z,97312.91
2018-04-28T00:21:01.238Z,97312.19
2018-04-28T00:22:04.284Z,97312.04
2018-04-28T00:23:07.645Z,97319.04
2018-04-28T00:24:10.438Z,97317.13
2018-04-28T00:25:13.144Z,97304.57
2018-04-28T00:26:16.058Z,97305.94
2018-04-28T00:27:19.780Z,97308.30
2018-04-28T00:28:22.529Z,97312.28
2018-04-28T00:29:25.272Z,97309.16
2018-04-28T00:30:28.652Z,97310.91
2018-04-28T00:31:34.538Z,97314.55
2018-04-28T00:32:38.413Z,97305.02
2018-04-28T00:33:42.664Z,97314.67
2018-04-28T00:34:45.599Z,97314.73
2018-04-28T00:35:48.332Z,97313.75
2018-04-28T00:36:51.084Z,97310.98
2018-04-28T00:37:54.635Z,97312.52
2018-04-28T00:38:58.185Z,97310.24
2018-04-28T00:40:01.306Z,97310.81
2018-04-28T00:41:04.152Z,97311.22
2018-04-28T00:42:06.848Z,97315.77
2018-04-28T00:43:10.983Z,97314.17
2018-04-28T00:44:15.270Z,97316.24
2018-04-28T00:45:18.208Z,97307.80
2018-04-28T00:46:21.249Z,97311.28
2018-04-28T00:47:24.027Z,97315.00
2018-04-28T00:48:28.095Z,97312.97
2018-04-28T00:49:31.497Z,97312.49
2018-04-28T00:50:34.324Z,97313.45
2018-04-28T00:51:37.189Z,97318.89
2018-04-28T00:52:40.319Z,97316.47
2018-04-28T00:53:43.691Z,97310.07
2018-04-28T00:54:47.570Z,97312.24
2018-04-28T00:55:50.332Z,97316.58
2018-04-28T00:56:53.054Z,97311.50
2018-04-28T00:57:56.435Z,97317.47
2018-04-28T00:59:00.931Z,97320.88
2018-04-28T01:00:04.242Z,97314.58
2018-04-28T01:01:07.103Z,97322.66
2018-04-28T01:02:09.898Z,97324.73
2018-04-28T01:03:12.642Z,97322.38
2018-04-28T01:04:16.201Z,97323.02
2018-04-28T01:05:20.074Z,97327.13
2018-04-28T01:06:22.937Z,97329.16
2018-04-28T01:07:25.800Z,97328.84
2018-04-28T01:08:28.659Z,97334.27
2018-04-28T01:09:32.721Z,97331.80
2018-04-28T01:10:36.016Z,97325.27
2018-04-28T01:11:39.110Z,97331.58
2018-04-28T01:12:41.755Z,97330.52
2018-04-28T01:13:44.549Z,97331.80
2018-04-28T01:14:48.428Z,97334.97
2018-04-28T01:15:51.432Z,97337.23
2018-04-28T01:16:54.211Z,97337.23
2018-04-28T01:17:57.216Z,97336.41
2018-04-28T01:19:01.487Z,97334.47
2018-04-28T01:20:05.865Z,97333.48
2018-04-28T01:21:09.904Z,97333.10
2018-04-28T01:22:12.732Z,97345.58
2018-04-28T01:23:15.490Z,97339.34
2018-04-28T01:24:18.625Z,97337.05
2018-04-28T01:25:22.661Z,97332.40
2018-04-28T01:26:25.907Z,97341.14
2018-04-28T01:27:28.740Z,97340.45
2018-04-28T01:28:31.483Z,97345.92
2018-04-28T01:29:34.329Z,97344.78
2018-04-28T01:30:39.824Z,97344.44
2018-04-28T01:31:43.546Z,97347.44
2018-04-28T01:32:47.470Z,97344.28
2018-04-28T01:33:50.269Z,97344.39
2018-04-28T01:34:53.054Z,97345.59
2018-04-28T01:35:56.080Z,97346.03
2018-04-28T01:37:00.221Z,97346.91
2018-04-28T01:38:02.981Z,97347.61
2018-04-28T01:39:05.760Z,97343.67
2018-04-28T01:40:08.529Z,97346.70
2018-04-28T01:41:12.038Z,97344.66
2018-04-28T01:42:16.087Z,97349.25
2018-04-28T01:43:20.590Z,97349.19
2018-04-28T01:44:24.485Z,97344.11
2018-04-28T01:45:27.240Z,97356.59
2018-04-28T01:46:29.994Z,97356.76
2018-04-28T01:47:33.613Z,97352.98
2018-04-28T01:48:37.133Z,97353.04
2018-04-28T01:49:40.818Z,97344.94
2018-04-28T01:50:43.559Z,97350.64
2018-04-28T01:51:46.305Z,97355.99
2018-04-28T01:52:52.072Z,97351.52
2018-04-28T01:53:55.110Z,97350.20
2018-04-28T01:54:58.303Z,97358.19
2018-04-28T01:56:01.452Z,97340.47
2018-04-28T01:57:04.200Z,97349.55
2018-04-28T01:58:07.219Z,97350.31
2018-04-28T01:59:10.830Z,97348.96
2018-04-28T02:00:14.301Z,97346.53
2018-04-28T02:01:17.587Z,97350.52
2018-04-28T02:02:20.737Z,97347.09
2018-04-28T02:03:23.622Z,97341.56
2018-04-28T02:04:28.492Z,97343.66
2018-04-28T02:05:31.608Z,97340.24
2018-04-28T02:06:34.299Z,97341.61
2018-04-28T02:07:36.979Z,97344.18
2018-04-28T02:08:40.373Z,97338.50
2018-04-28T02:09:44.063Z,97343.33
2018-04-28T02:10:46.975Z,97343.15
2018-04-28T02:11:49.699Z,97346.59
2018-04-28T02:12:52.467Z,97341.35
2018-04-28T02:13:56.193Z,97349.22
2018-04-28T02:15:01.239Z,97350.15
2018-04-28T02:16:04.200Z,97352.45
2018-04-28T02:17:06.947Z,97358.08
2018-04-28T02:18:09.618Z,97360.48
2018-04-28T02:19:12.541Z,97354.70
2018-04-28T02:20:15.945Z,97362.89
2018-04-28T02:21:19.201Z,97359.70
2018-04-28T02:22:21.955Z,97370.23
2018-04-28T02:23:24.624Z,97371.13
2018-04-28T02:24:27.769Z,97369.58
2018-04-28T02:25:30.537Z,97375.99
2018-04-28T02:26:33.343Z,97376.59
2018-04-28T02:27:36.405Z,97371.66
2018-04-28T02:28:39.197Z,97383.80
2018-04-28T02:29:42.605Z,97383.36
2018-04-28T02:30:45.455Z,97383.80
2018-04-28T02:31:48.176Z,97378.08
2018-04-28T02:32:50.905Z,97378.89
2018-04-28T02:33:54.846Z,97378.66
2018-04-28T02:34:57.629Z,97382.97
2018-04-28T02:36:00.441Z,97386.05
2018-04-28T02:37:04.159Z,97386.87
2018-04-28T02:38:07.217Z,97385.89
2018-04-28T02:39:10.405Z,97379.33
2018-04-28T02:40:13.995Z,97383.27
2018-04-28T02:41:16.805Z,97383.05
2018-04-28T02:42:19.498Z,97378.87
2018-04-28T02:43:22.765Z,97380.07
2018-04-28T02:44:25.903Z,97384.23
2018-04-28T02:45:28.586Z,97385.78
2018-04-28T02:46:31.676Z,97383.97
2018-04-28T02:47:34.656Z,97386.64
2018-04-28T02:48:38.537Z,97389.71
2018-04-28T02:49:41.299Z,97391.34
2018-04-28T02:50:44.134Z,97392.53
2018-04-28T02:51:46.888Z,97393.96
2018-04-28T02:52:50.935Z,97393.66
2018-04-28T02:53:56.743Z,97391.31
2018-04-28T02:55:00.830Z,97394.60
2018-04-28T02:56:03.768Z,97394.36
2018-04-28T02:57:06.696Z,97394.77
2018-04-28T02:58:09.469Z,97393.19
2018-04-28T02:59:12.915Z,97397.49
2018-04-28T03:00:17.941Z,97394.50
2018-04-28T03:01:21.165Z,97394.88
2018-04-28T03:02:24.071Z,97394.27
2018-04-28T03:03:26.847Z,97397.44
2018-04-28T03:04:29.858Z,97393.89
2018-04-28T03:05:34.199Z,97403.45
2018-04-28T03:06:37.238Z,97396.77
2018-04-28T03:07:40.117Z,97401.17
2018-04-28T03:08:42.877Z,97403.52
2018-04-28T03:09:45.675Z,97403.80
2018-04-28T03:10:49.315Z,97402.02
2018-04-28T03:11:52.601Z,97410.27
2018-04-28T03:12:55.229Z,97407.28
2018-04-28T03:15:14.759Z,97409.08
2018-04-28T03:16:18.539Z,97407.38
2018-04-28T03:17:22.120Z,97409.26
2018-04-28T03:18:25.487Z,97413.28
2018-04-28T03:19:28.215Z,97409.79
2018-04-28T03:20:30.956Z,97411.00
2018-04-28T03:21:34.455Z,97410.12
2018-04-28T03:22:38.065Z,97408.42
2018-04-28T03:23:40.873Z,97402.31
2018-04-28T03:24:44.076Z,97405.52
2018-04-28T03:25:46.830Z,97404.25
2018-04-28T03:26:50.788Z,97403.27
2018-04-28T03:27:54.847Z,97398.97
2018-04-28T03:28:57.593Z,97403.45
2018-04-28T03:30:00.339Z,97410.98
2018-04-28T03:31:03.497Z,97404.23
2018-04-28T03:32:06.936Z,97400.99
2018-04-28T03:33:11.132Z,97395.86
2018-04-28T03:34:13.945Z,97404.70
2018-04-28T03:35:16.708Z,97393.98
2018-04-28T03:36:19.786Z,97396.45
2018-04-28T03:37:23.323Z,97398.46
2018-04-28T03:38:26.324Z,97397.45
2018-04-28T03:39:29.070Z,97401.21
2018-04-28T03:40:31.799Z,97401.66
2018-04-28T03:41:35.013Z,97395.91
2018-04-28T03:42:38.626Z,97393.13
2018-04-28T03:43:41.695Z,97394.97
2018-04-28T03:44:44.436Z,97390.55
2018-04-28T03:45:47.477Z,97399.31
2018-04-28T03:46:51.533Z,97387.03
2018-04-28T03:47:55.687Z,97391.58
2018-04-28T03:48:58.749Z,97394.30
2018-04-28T03:50:01.737Z,97396.24
2018-04-28T03:51:04.540Z,97394.70
2018-04-28T03:52:08.137Z,97395.97
2018-04-28T03:53:11.136Z,97402.63
2018-04-28T03:54:13.849Z,97408.02
2018-04-28T03:55:16.523Z,97400.78
2018-04-28T03:56:22.564Z,97400.55
2018-04-28T03:57:25.419Z,97405.59
2018-04-28T03:58:29.710Z,97401.48
2018-04-28T03:59:32.713Z,97407.01
2018-04-28T04:00:35.522Z,97413.52
2018-04-28T04:01:38.262Z,97408.82
2018-04-28T04:02:41.839Z,97410.23
2018-04-28T04:03:45.097Z,97413.23
2018-04-28T04:04:47.785Z,97410.84
2018-04-28T04:05:50.470Z,97412.38
2018-04-28T04:06:53.282Z,97407.52
2018-04-28T04:07:58.524Z,97411.01
2018-04-28T04:09:02.764Z,97410.52
2018-04-28T04:10:05.543Z,97420.28
2018-04-28T04:11:08.342Z,97416.85
2018-04-28T04:12:11.100Z,97415.57
2018-04-28T04:13:14.394Z,97419.80
2018-04-28T04:14:20.171Z,97420.82
2018-04-28T04:15:23.916Z,97422.25
2018-04-28T04:16:26.563Z,97420.41
2018-04-28T04:17:29.327Z,97425.00
2018-04-28T04:18:32.227Z,97426.18
2018-04-28T04:19:36.178Z,97424.72
2018-04-28T04:20:39.349Z,97425.20
2018-04-28T04:21:42.469Z,97423.02
2018-04-28T04:22:45.149Z,97428.47
2018-04-28T04:23:48.203Z,97429.55
2018-04-28T04:24:52.821Z,97426.86
2018-04-28T04:25:56.234Z,97435.48
2018-04-28T04:26:58.994Z,97435.64
2018-04-28T04:28:02.250Z,97439.92
2018-04-28T04:29:05.180Z,97441.63
2018-04-28T04:30:08.213Z,97438.69
2018-04-28T04:31:10.972Z,97437.03
2018-04-28T04:32:13.776Z,97442.92
2018-04-28T04:33:16.594Z,97441.32
2018-04-28T04:34:20.466Z,97440.19
2018-04-28T04:35:24.465Z,97443.12
2018-04-28T04:36:27.241Z,97445.80
2018-04-28T04:37:30.029Z,97451.16
2018-04-28T04:38:32.819Z,97449.73
2018-04-28T04:39:37.258Z,97452.55
2018-04-28T04:40:41.560Z,97450.70
2018-04-28T04:41:44.364Z,97449.66
2018-04-28T04:42:48.283Z,97457.15
2018-04-28T04:43:51.064Z,97453.42
2018-04-28T04:44:54.418Z,97454.86
2018-04-28T04:45:57.438Z,97454.44
2018-04-28T04:47:00.913Z,97456.49
2018-04-28T04:48:03.558Z,97449.88
2018-04-28T04:49:06.327Z,97451.84
2018-04-28T04:50:09.627Z,97456.94
2018-04-28T04:51:12.434Z,97462.63
2018-04-28T04:52:15.055Z,97455.84
2018-04-28T04:53:18.483Z,97455.75
2018-04-28T04:54:22.622Z,97453.31
2018-04-28T04:55:26.109Z,97453.39
2018-04-28T04:56:28.898Z,97462.39
2018-04-28T04:57:31.653Z,97462.18
2018-04-28T04:58:34.386Z,97462.92
2018-04-28T04:59:38.303Z,97461.33
2018-04-28T05:00:41.176Z,97466.20
2018-04-28T05:01:43.878Z,97463.63
2018-04-28T05:02:46.561Z,97469.06
2018-04-28T05:03:49.793Z,97462.13
2018-04-28T05:04:53.801Z,97464.94
2018-04-28T05:05:57.080Z,97457.05
2018-04-28T05:06:59.857Z,97465.80
2018-04-28T05:08:02.620Z,97466.78
2018-04-28T05:09:06.974Z,97462.16
2018-04-28T05:10:10.081Z,97466.47
2018-04-28T05:11:12.979Z,97460.31
2018-04-28T05:12:16.100Z,97465.13
2018-04-28T05:13:18.921Z,97464.59
2018-04-28T05:14:22.846Z,97466.17
2018-04-28T05:15:26.812Z,97467.09
2018-04-28T05:16:29.566Z,97467.66
2018-04-28T05:17:32.352Z,97466.50
2018-04-28T05:18:35.384Z,97476.23
2018-04-28T05:19:38.319Z,97475.30
2018-04-28T05:20:41.092Z,97477.22
2018-04-28T05:21:43.779Z,97478.96
2018-04-28T05:22:46.535Z,97480.57
2018-04-28T05:23:50.067Z,97484.34
2018-04-28T05:24:55.776Z,97485.98
2018-04-28T05:25:58.722Z,97484.73
2018-04-28T05:27:01.441Z,97488.31
2018-04-28T05:28:04.159Z,97495.64
2018-04-28T05:29:07.676Z,97499.03
2018-04-28T05:30:10.608Z,97494.34
2018-04-28T05:31:13.848Z,97501.09
2018-04-28T05:32:16.635Z,97498.98
2018-04-28T05:33:19.496Z,97500.13
2018-04-28T05:34:22.978Z,97495.78
2018-04-28T05:35:25.734Z,97495.32
2018-04-28T05:36:28.593Z,97503.03
2018-04-28T05:37:31.870Z,97501.52
2018-04-28T05:38:35.572Z,97498.62
2018-04-28T05:39:38.768Z,97505.90
2018-04-28T05:40:41.765Z,97509.95
2018-04-28T05:41:44.513Z,97505.13
2018-04-28T05:42:47.216Z,97510.85
2018-04-28T05:43:51.614Z,97513.16
2018-04-28T05:44:56.563Z,97507.68
2018-04-28T05:45:59.565Z,97512.62
2018-04-28T05:47:02.393Z,97514.47
2018-04-28T05:48:05.474Z,97513.58
2018-04-28T05:49:08.615Z,97520.12
2018-04-28T05:50:12.424Z,97518.13
2018-04-28T05:51:15.223Z,97523.73
2018-04-28T05:52:18.062Z,97517.97
2018-04-28T05:53:20.812Z,97523.66
2018-04-28T05:54:25.137Z,97520.84
2018-04-28T05:55:29.330Z,97530.38
2018-04-28T05:56:33.540Z,97523.87
2018-04-28T05:57:36.302Z,97524.98
2018-04-28T05:58:39.064Z,97521.91
2018-04-28T05:59:41.843Z,97527.88
2018-04-28T06:00:45.681Z,97533.39
2018-04-28T06:01:49.811Z,97534.23
2018-04-28T06:02:52.910Z,97532.80
2018-04-28T06:03:55.664Z,97530.57
2018-04-28T06:04:58.406Z,97533.08
2018-04-28T06:06:02.351Z,97532.87
2018-04-28T06:07:07.438Z,97537.63
2018-04-28T06:08:10.353Z,97533.67
2018-04-28T06:09:13.774Z,97537.64
2018-04-28T06:10:16.504Z,97535.48
2018-04-28T06:11:19.690Z,97531.28
2018-04-28T06:12:23.556Z,97531.77
2018-04-28T06:13:26.314Z,97528.25
2018-04-28T06:14:29.108Z,97526.61
2018-04-28T06:15:32.186Z,97533.13
2018-04-28T06:16:35.036Z,97530.98
2018-04-28T06:17:38.084Z,97534.28
2018-04-28T06:18:40.869Z,97540.85
2018-04-28T06:19:43.678Z,97539.65
2018-04-28T06:20:47.296Z,97533.91
2018-04-28T06:21:50.767Z,97534.27
2018-04-28T06:22:53.588Z,97539.92
2018-04-28T06:23:56.321Z,97541.02
2018-04-28T06:24:59.310Z,97536.03
2018-04-28T06:26:02.257Z,97537.02
2018-04-28T06:27:05.055Z,97538.80
2018-04-28T06:28:08.171Z,97537.07
2018-04-28T06:29:11.119Z,97536.85
2018-04-28T06:30:14.344Z,97542.70
2018-04-28T06:31:17.325Z,97539.68
2018-04-28T06:32:20.087Z,97537.34
2018-04-28T06:33:22.873Z,97540.82
2018-04-28T06:34:27.266Z,97544.39
2018-04-28T06:35:31.628Z,97539.85
2018-04-28T06:36:34.516Z,97548.76
2018-04-28T06:37:38.091Z,97544.08
2018-04-28T06:38:40.987Z,97546.56
2018-04-28T06:39:44.328Z,97544.89
2018-04-28T06:40:49.045Z,97542.41
2018-04-28T06:41:51.847Z,97550.47
2018-04-28T06:42:54.762Z,97545.89
2018-04-28T06:43:57.594Z,97554.52
2018-04-28T06:45:02.441Z,97551.58
2018-04-28T06:46:06.336Z,97549.78
2018-04-28T06:47:10.059Z,97560.63
2018-04-28T06:48:12.769Z,97551.90
2018-04-28T06:49:15.613Z,97551.80
2018-04-28T06:50:18.498Z,97550.71
2018-04-28T06:51:22.088Z,97554.20
2018-04-28T06:52:25.038Z,97555.55
2018-04-28T06:53:28.216Z,97556.05
2018-04-28T06:54:31.035Z,97555.97
2018-04-28T06:55:34.509Z,97553.16
2018-04-28T06:56:37.373Z,97558.34
2018-04-28T06:57:40.124Z,97565.42
2018-04-28T06:58:43.333Z,97567.05
2018-04-28T06:59:47.105Z,97552.55
2018-04-28T07:00:50.760Z,97556.41
2018-04-28T07:01:53.566Z,97573.69
2018-04-28T07:02:56.363Z,97575.14
2018-04-28T07:03:59.110Z,97571.69
2018-04-28T07:05:03.154Z,97568.33
2018-04-28T07:06:07.465Z,97574.17
2018-04-28T07:07:10.364Z,97577.57
2018-04-28T07:08:13.139Z,97574.39
2018-04-28T07:09:15.942Z,97580.21
2018-04-28T07:10:19.364Z,97577.73
2018-04-28T07:12:35.686Z,97576.70
2018-04-28T07:13:38.449Z,97587.22
2018-04-28T07:14:41.972Z,97574.09
2018-04-28T07:15:46.198Z,97590.47
2018-04-28T07:16:50.609Z,97571.34
2018-04-28T07:17:53.642Z,97564.98
2018-04-28T07:18:56.734Z,97567.83
2018-04-28T07:19:59.589Z,97570.78
2018-04-28T07:21:03.099Z,97569.95
2018-04-28T07:22:06.479Z,97572.44
2018-04-28T07:23:09.321Z,97574.19
2018-04-28T07:24:12.080Z,97576.55
2018-04-28T07:25:15.639Z,97574.05
2018-04-28T07:26:19.522Z,97578.96
2018-04-28T07:27:23.467Z,97580.23
2018-04-28T07:28:26.221Z,97580.39
2018-04-28T07:29:29.007Z,97581.98
2018-04-28T07:30:31.797Z,97582.81
2018-04-28T07:31:35.396Z,97585.80
2018-04-28T07:32:38.207Z,97586.34
2018-04-28T07:33:40.970Z,97584.63
2018-04-28T07:34:43.751Z,97578.03
2018-04-28T07:35:47.163Z,97586.70
2018-04-28T07:36:50.111Z,97577.05
2018-04-28T07:37:53.436Z,97590.09
2018-04-28T07:38:56.221Z,97582.91
2018-04-28T07:39:59.168Z,97578.67
2018-04-28T07:41:04.132Z,97599.14
2018-04-28T07:42:08.798Z,97577.02
2018-04-28T07:43:12.332Z,97578.23
2018-04-28T07:44:15.588Z,97577.98
2018-04-28T07:45:18.519Z,97581.48
2018-04-28T07:46:22.045Z,97565.41
2018-04-28T07:47:25.856Z,97576.09
2018-04-28T07:48:28.577Z,97575.20
2018-04-28T07:49:31.377Z,97588.11
2018-04-28T07:50:34.532Z,97578.29
2018-04-28T07:51:38.880Z,97572.92
2018-04-28T07:52:42.449Z,97578.27
2018-04-28T07:53:45.216Z,97577.99
2018-04-28T07:54:48.282Z,97564.39
2018-04-28T07:55:51.049Z,97565.23
2018-04-28T07:56:55.127Z,97562.70
2018-04-28T07:57:58.255Z,97572.52
2018-04-28T07:59:01.059Z,97572.63
2018-04-28T08:00:03.792Z,97571.47
2018-04-28T08:01:06.718Z,97572.44
2018-04-28T08:02:10.615Z,97566.18
2018-04-28T08:03:13.864Z,97565.43
2018-04-28T08:04:16.966Z,97570.03
2018-04-28T08:05:19.765Z,97570.50
2018-04-28T08:06:23.565Z,97568.92
2018-04-28T08:07:27.787Z,97575.28
2018-04-28T08:08:32.441Z,97576.73
2018-04-28T08:09:35.338Z,97561.80
2018-04-28T08:10:38.063Z,97563.66
2018-04-28T08:11:40.839Z,97571.20
2018-04-28T08:12:44.272Z,97566.27
2018-04-28T08:13:47.575Z,97557.45
2018-04-28T08:14:50.364Z,97565.98
2018-04-28T08:15:53.501Z,97556.77
2018-04-28T08:16:56.557Z,97551.38
2018-04-28T08:17:59.758Z,97566.14
2018-04-28T08:19:02.576Z,97565.08
2018-04-28T08:20:05.280Z,97554.70
2018-04-28T08:21:08.102Z,97551.33
2018-04-28T08:22:12.048Z,97552.55
2018-04-28T08:23:15.134Z,97559.81
2018-04-28T08:24:17.915Z,97561.70
2018-04-28T08:25:20.696Z,97564.88
2018-04-28T08:26:23.507Z,97564.98
2018-04-28T08:27:27.976Z,97557.04
2018-04-28T08:28:32.750Z,97561.36
2018-04-28T08:29:36.409Z,97562.47
2018-04-28T08:30:40.050Z,97569.30
2018-04-28T08:31:42.784Z,97568.56
2018-04-28T08:32:45.543Z,97557.77
2018-04-28T08:33:49.307Z,97563.61
2018-04-28T08:34:53.525Z,97572.40
2018-04-28T08:35:56.369Z,97537.61
2018-04-28T08:36:59.085Z,97546.72
2018-04-28T08:38:01.865Z,97556.06
2018-04-28T08:39:05.993Z,97482.88
2018-04-28T08:40:09.224Z,97558.27
2018-04-28T08:41:12.504Z,97564.30
2018-04-28T08:42:15.233Z,97566.12
2018-04-28T08:43:18.191Z,97564.59
2018-04-28T08:44:22.272Z,97575.27
2018-04-28T08:45:26.006Z,97568.79
2018-04-28T08:46:28.986Z,97555.67
2018-04-28T08:47:32.200Z,97568.06
2018-04-28T08:48:35.254Z,97573.23
2018-04-28T08:49:38.982Z,97567.98
2018-04-28T08:50:41.746Z,97568.58
2018-04-28T08:51:44.541Z,97550.66
2018-04-28T08:52:47.324Z,97575.70
2018-04-28T08:53:51.763Z,97575.86
2018-04-28T08:54:55.356Z,97569.89
2018-04-28T08:55:58.194Z,97562.61
2018-04-28T08:57:00.953Z,97552.30
2018-04-28T08:58:03.751Z,97562.87
2018-04-28T08:59:07.152Z,97557.42
2018-04-28T09:00:13.502Z,97567.67
2018-04-28T09:01:16.983Z,97594.81
2018-04-28T09:02:19.961Z,97570.72
2018-04-28T09:03:23.011Z,97568.34
2018-04-28T09:04:25.729Z,97601.38
2018-04-28T09:05:29.915Z,97580.11
2018-04-28T09:06:34.553Z,97574.12
2018-04-28T09:07:37.445Z,97583.81
2018-04-28T09:08:40.394Z,97558.65
2018-04-28T09:09:43.147Z,97551.53
2018-04-28T09:10:47.006Z,97541.36
2018-04-28T09:11:50.435Z,97590.64
2018-04-28T09:12:53.786Z,97589.34
2018-04-28T09:13:56.541Z,97586.97
2018-04-28T09:14:59.315Z,97584.33
2018-04-28T09:16:02.475Z,97612.41
2018-04-28T09:17:07.081Z,97580.96
2018-04-28T09:18:10.855Z,97578.97
2018-04-28T09:19:14.019Z,97605.42
2018-04-28T09:20:16.798Z,97604.66
2018-04-28T09:21:20.997Z,97579.89
2018-04-28T09:22:23.987Z,97601.06
2018-04-28T09:23:26.793Z,97577.61
2018-04-28T09:24:29.663Z,97562.08
2018-04-28T09:25:32.911Z,97553.73
2018-04-28T09:26:37.095Z,97592.50
2018-04-28T09:27:40.247Z,97565.02
2018-04-28T09:28:42.977Z,97591.61
2018-04-28T09:29:45.733Z,97594.05
2018-04-28T09:30:48.602Z,97588.75
2018-04-28T09:31:53.213Z,97603.76
2018-04-28T09:32:56.677Z,97586.88
2018-04-28T09:33:59.453Z,97578.19
2018-04-28T09:35:02.180Z,97571.83
2018-04-28T09:36:05.143Z,97598.97
2018-04-28T09:37:08.640Z,97585.84
2018-04-28T09:38:11.958Z,97583.08
2018-04-28T09:39:14.809Z,97588.63
2018-04-28T09:40:17.644Z,97564.05
2018-04-28T09:41:21.037Z,97590.83
2018-04-28T09:42:24.521Z,97577.69
2018-04-28T09:43:27.284Z,97570.25
2018-04-28T09:44:30.044Z,97590.89
2018-04-28T09:45:33.245Z,97590.62
2018-04-28T09:46:36.641Z,97598.14
2018-04-28T09:47:39.653Z,97578.98
2018-04-28T09:48:42.502Z,97587.54
2018-04-28T09:49:45.354Z,97595.62
2018-04-28T09:50:49.800Z,97582.80
2018-04-28T09:51:53.326Z,97582.63
2018-04-28T09:52:56.085Z,97568.95
2018-04-28T09:53:58.833Z,97581.70
2018-04-28T09:55:01.696Z,97601.07
2018-04-28T09:56:05.515Z,97581.65
2018-04-28T09:57:10.048Z,97573.13
2018-04-28T09:58:12.852Z,97597.42
2018-04-28T09:59:15.670Z,97606.39
2018-04-28T10:00:22.377Z,97614.58
2018-04-28T10:01:25.288Z,97591.66
2018-04-28T10:02:28.971Z,97601.61
2018-04-28T10:03:33.748Z,97599.73
2018-04-28T10:04:37.773Z,97599.36
2018-04-28T10:05:41.894Z,97599.67
2018-04-28T10:06:44.600Z,97589.45
2018-04-28T10:07:47.395Z,97603.23
2018-04-28T10:09:02.288Z,97593.25
2018-04-28T10:10:06.395Z,97558.42
2018-04-28T10:11:09.732Z,97582.83
2018-04-28T10:12:12.588Z,97604.70
2018-04-28T10:13:15.438Z,97601.05
2018-04-28T10:14:18.182Z,97595.47
2018-04-28T10:15:22.403Z,97585.73
2018-04-28T10:16:26.663Z,97581.14
2018-04-28T10:17:29.433Z,97583.44
2018-04-28T10:18:32.098Z,97566.22
2018-04-28T10:19:34.878Z,97576.58
2018-04-28T10:20:38.184Z,97597.55
2018-04-28T10:21:42.269Z,97561.46
2018-04-28T10:22:45.073Z,97560.66
2018-04-28T10:23:47.862Z,97622.05
2018-04-28T10:24:50.691Z,97612.99
2018-04-28T10:25:55.772Z,97597.72
2018-04-28T10:26:59.464Z,97588.09
2018-04-28T10:28:03.231Z,97609.59
2018-04-28T10:29:06.075Z,97599.61
2018-04-28T10:30:08.886Z,97576.44
2018-04-28T10:31:11.759Z,97573.92
2018-04-28T10:33:38.074Z,97578.69
2018-04-28T10:34:41.092Z,97607.28
2018-04-28T10:35:44.376Z,97608.63
2018-04-28T10:36:47.166Z,97562.59
2018-04-28T10:37:49.932Z,97588.01
2018-04-28T10:38:53.673Z,97589.89
2018-04-28T10:39:57.766Z,97596.91
2018-04-28T10:41:01.856Z,97595.77
2018-04-28T10:42:05.353Z,97623.86
2018-04-28T10:43:08.249Z,97591.06
2018-04-28T10:44:11.034Z,97582.12
2018-04-28T10:45:13.852Z,97585.28
2018-04-28T10:46:17.637Z,97582.32
2018-04-28T10:47:21.228Z,97597.14
2018-04-28T10:48:24.295Z,97583.91
2018-04-28T10:49:27.060Z,97587.54
2018-04-28T10:50:29.892Z,97555.83
2018-04-28T10:51:33.323Z,97580.68
2018-04-28T10:52:36.670Z,97588.74
2018-04-28T10:53:39.537Z,97578.57
2018-04-28T10:54:42.263Z,97563.13
2018-04-28T10:55:45.953Z,97571.25
2018-04-28T10:56:49.589Z,97590.38
2018-04-28T10:57:52.380Z,97605.11
2018-04-28T10:58:55.721Z,97558.25
2018-04-28T10:59:58.532Z,97600.27
2018-04-28T11:01:03.259Z,97622.56
2018-04-28T11:02:06.377Z,97598.76
2018-04-28T11:03:09.277Z,97618.40
2018-04-28T11:04:12.094Z,97589.70
2018-04-28T11:05:15.188Z,97576.31
2018-04-28T11:06:18.055Z,97588.80
2018-04-28T11:07:22.284Z,97599.22
2018-04-28T11:08:25.108Z,97646.06
2018-04-28T11:09:27.918Z,97600.55
2018-04-28T11:10:30.675Z,97620.25
2018-04-28T11:11:35.410Z,97603.20
2018-04-28T11:12:42.820Z,97590.14
2018-04-28T11:13:45.869Z,97588.67
2018-04-28T11:14:49.459Z,97559.03
2018-04-28T11:15:52.367Z,97581.10
2018-04-28T11:16:55.148Z,97592.53
2018-04-28T11:17:58.352Z,97576.77
2018-04-28T11:19:01.664Z,97585.11
2018-04-28T11:20:04.535Z,97562.66
2018-04-28T11:21:07.695Z,97596.47
2018-04-28T11:22:10.540Z,97570.83
2018-04-28T11:23:14.608Z,97596.14
2018-04-28T11:24:18.588Z,97598.45
2018-04-28T11:25:21.384Z,97582.30
2018-04-28T11:26:24.208Z,97587.19
2018-04-28T11:27:26.919Z,97577.95
2018-04-28T11:28:30.284Z,97523.37
2018-04-28T11:29:33.428Z,97564.19
2018-04-28T11:30:36.687Z,97545.77
2018-04-28T11:31:39.419Z,97568.34
2018-04-28T11:32:44.278Z,97579.83
2018-04-28T11:33:47.377Z,97587.31
2018-04-28T11:34:50.715Z,97590.73
2018-04-28T11:35:53.510Z,97583.64
2018-04-28T11:36:56.635Z,97573.98
2018-04-28T11:37:59.656Z,97590.69
2018-04-28T11:39:03.016Z,97573.08
2018-04-28T11:40:05.869Z,97584.77
2018-04-28T11:41:08.634Z,97595.23
2018-04-28T11:42:12.393Z,97592.78
2018-04-28T11:43:15.840Z,97578.55
2018-04-28T11:44:19.995Z,97584.12
2018-04-28T11:45:22.823Z,97579.36
2018-04-28T11:46:25.595Z,97597.25
2018-04-28T11:47:28.362Z,97592.58
2018-04-28T11:48:31.912Z,97572.27
2018-04-28T11:49:34.994Z,97587.48
2018-04-28T11:50:37.731Z,97578.95
2018-04-28T11:51:40.545Z,97572.16
2018-04-28T11:52:44.092Z,97561.05
2018-04-28T11:53:47.085Z,97581.44
2018-04-28T11:54:49.936Z,97574.14
2018-04-28T11:55:53.300Z,97595.38
2018-04-28T11:56:56.601Z,97585.04
2018-04-28T11:58:00.338Z,97547.72
2018-04-28T11:59:03.113Z,97540.63
2018-04-28T12:00:05.915Z,97559.45
2018-04-28T12:01:08.682Z,97575.36
2018-04-28T12:02:12.739Z,97576.37
2018-04-28T12:03:17.149Z,97596.36
2018-04-28T12:04:20.052Z,97574.18
2018-04-28T12:05:22.712Z,97551.30
2018-04-28T12:06:25.390Z,97571.11
2018-04-28T12:07:28.838Z,97568.39
2018-04-28T12:08:32.543Z,97559.19
2018-04-28T12:09:35.502Z,97549.48
2018-04-28T12:10:38.331Z,97554.28
2018-04-28T12:11:41.035Z,97551.88
2018-04-28T12:12:44.773Z,97563.49
2018-04-28T12:13:47.676Z,97559.77
2018-04-28T12:14:50.757Z,97546.82
2018-04-28T12:15:53.473Z,97552.91
2018-04-28T12:16:56.892Z,97565.50
2018-04-28T12:18:00.250Z,97556.16
2018-04-28T12:19:02.967Z,97570.88
2018-04-28T12:20:05.714Z,97560.74
2018-04-28T12:21:09.586Z,97559.34
2018-04-28T12:22:14.034Z,97563.86
2018-04-28T12:23:17.658Z,97568.14
2018-04-28T12:24:20.476Z,97570.88
2018-04-28T12:25:23.225Z,97554.77
2018-04-28T12:26:26.283Z,97591.70
2018-04-28T12:27:30.847Z,97561.41